Time;durP1;ratioP1;P1;durP2;ratioP2;P2;SDS_P1;SDS_P2;PMS_P1;PMS_P2;Temp;Humidity;BMP_temperature;BMP_pressure;BME280_temperature;BME280_humidity;BME280_pressure;Samples;Min_cycle;Max_cycle;Signal;HPM_P1;HPM_P2
2022/11/05 00:10:42;;;;;;;10.02;9.32;;;;;;;;;;4996755;28;20045;-60
2022/11/05 00:18:37;;;;;;;10.30;9.68;;;;;;;;;;5000502;28;20128;-60
2022/11/05 00:21:03;;;;;;;8.75;8.18;;;;;;;;;;4997268;28;20120;-60
2022/11/05 00:26:13;;;;;;;10.43;9.57;;;;;;;;;;5000166;28;20033;-60
2022/11/05 00:28:42;;;;;;;9.18;8.57;;;;;;;;;;4997119;28;20033;-60
2022/11/05 00:31:12;;;;;;;9.05;8.45;;;;;;;;;;4997957;28;20041;-60
2022/11/05 00:33:39;;;;;;;9.07;8.47;;;;;;;;;;4998584;28;20033;-60
2022/11/05 00:36:07;;;;;;;9.60;9.00;;;;;;;;;;4996943;28;20458;-60
2022/11/05 00:38:33;;;;;;;9.10;8.50;;;;;;;;;;4996270;28;20132;-60
2022/11/05 00:40:58;;;;;;;9.10;8.50;;;;;;;;;;4996712;28;20061;-60
2022/11/05 00:46:08;;;;;;;8.45;7.85;;;;;;;;;;4995984;28;20038;-60
2022/11/05 00:51:18;;;;;;;8.40;7.80;;;;;;;;;;4995886;28;20031;-60
2022/11/05 00:53:43;;;;;;;9.38;8.68;;;;;;;;;;4994198;28;20021;-60
2022/11/05 00:56:09;;;;;;;9.13;8.52;;;;;;;;;;4997065;28;20034;-60
2022/11/05 00:58:34;;;;;;;8.13;7.53;;;;;;;;;;4999198;28;20030;-60
2022/11/05 01:01:01;;;;;;;9.38;8.77;;;;;;;;;;4995334;28;20034;-60
2022/11/05 01:03:32;;;;;;;8.88;8.27;;;;;;;;;;4996216;28;20049;-60
2022/11/05 01:06:05;;;;;;;8.52;8.00;;;;;;;;;;4997530;28;20034;-60
2022/11/05 01:08:31;;;;;;;8.30;7.80;;;;;;;;;;4994980;28;20034;-60
2022/11/05 01:10:57;;;;;;;8.43;7.93;;;;;;;;;;4994625;28;20517;-60
2022/11/05 01:13:28;;;;;;;9.02;8.43;;;;;;;;;;4995994;28;20038;-60
2022/11/05 01:15:54;;;;;;;9.15;8.55;;;;;;;;;;4995227;28;20034;-60
2022/11/05 01:18:22;;;;;;;8.07;7.57;;;;;;;;;;4997446;28;20049;-60
2022/11/05 01:20:47;;;;;;;7.93;7.43;;;;;;;;;;4997611;28;20050;-60
2022/11/05 01:23:13;;;;;;;9.15;8.35;;;;;;;;;;4997089;28;20480;-60
2022/11/05 01:25:39;;;;;;;9.38;8.77;;;;;;;;;;4998944;28;20032;-60
2022/11/05 01:28:05;;;;;;;8.02;7.53;;;;;;;;;;4998370;28;20048;-60
2022/11/05 01:30:31;;;;;;;7.38;6.88;;;;;;;;;;5000125;28;20124;-60
2022/11/05 01:32:56;;;;;;;7.68;7.18;;;;;;;;;;4997211;28;20586;-60
2022/11/05 01:35:22;;;;;;;8.05;7.53;;;;;;;;;;4996940;28;20037;-60
2022/11/05 01:37:48;;;;;;;7.95;7.45;;;;;;;;;;4995542;28;20145;-60
2022/11/05 01:40:20;;;;;;;7.35;6.85;;;;;;;;;;4993948;28;20034;-61
2022/11/05 01:42:45;;;;;;;8.15;7.65;;;;;;;;;;4994646;28;20022;-60
2022/11/05 01:45:19;;;;;;;9.98;9.13;;;;;;;;;;4994098;28;20034;-60
2022/11/05 01:48:01;;;;;;;8.38;7.78;;;;;;;;;;4998432;28;20077;-60
2022/11/05 01:50:26;;;;;;;8.90;8.30;;;;;;;;;;4995100;28;20023;-60
2022/11/05 01:52:58;;;;;;;8.05;7.55;;;;;;;;;;4997066;28;20042;-60
2022/11/05 01:55:28;;;;;;;8.25;7.75;;;;;;;;;;4994900;28;20118;-60
2022/11/05 01:57:56;;;;;;;8.57;8.00;;;;;;;;;;4998240;28;20451;-60
2022/11/05 02:00:21;;;;;;;8.60;8.10;;;;;;;;;;4996037;28;20133;-60
2022/11/05 02:02:47;;;;;;;11.07;10.20;;;;;;;;;;4993070;28;20048;-60
2022/11/05 02:05:13;;;;;;;8.75;8.15;;;;;;;;;;4994562;28;20072;-60
2022/11/05 02:07:40;;;;;;;9.45;8.85;;;;;;;;;;4996099;28;20034;-60
2022/11/05 02:10:12;;;;;;;7.85;7.35;;;;;;;;;;4996519;28;20029;-61
2022/11/05 02:12:42;;;;;;;9.40;8.80;;;;;;;;;;4997771;28;20097;-60
2022/11/05 02:15:12;;;;;;;8.30;7.80;;;;;;;;;;4994104;28;20391;-60
2022/11/05 02:17:46;;;;;;;8.60;8.00;;;;;;;;;;4996872;28;20144;-61
2022/11/05 02:20:22;;;;;;;8.38;7.78;;;;;;;;;;4992876;28;20156;-60
2022/11/05 02:22:59;;;;;;;11.07;10.13;;;;;;;;;;4998871;28;20049;-60
2022/11/05 02:25:43;;;;;;;9.65;9.02;;;;;;;;;;4997964;28;20033;-61
2022/11/05 02:28:08;;;;;;;8.73;8.13;;;;;;;;;;4992768;28;20045;-60
2022/11/05 02:30:44;;;;;;;9.02;8.43;;;;;;;;;;4993519;28;20042;-61
2022/11/05 02:33:36;;;;;;;9.52;8.93;;;;;;;;;;4994014;28;20353;-60
2022/11/05 02:36:19;;;;;;;10.43;9.73;;;;;;;;;;4997068;28;20030;-60
2022/11/05 02:39:10;;;;;;;9.18;8.57;;;;;;;;;;4992530;28;20095;-60
2022/11/05 02:41:54;;;;;;;9.27;8.68;;;;;;;;;;4997121;28;20030;-60
2022/11/05 02:44:45;;;;;;;10.18;9.48;;;;;;;;;;4996042;28;20080;-60
2022/11/05 02:47:32;;;;;;;;;;;;;;;;;;4995684;28;20114;-60
2022/11/05 02:50:23;;;;;;;9.45;8.85;;;;;;;;;;5001873;28;19913;-60
2022/11/05 02:53:00;;;;;;;9.13;8.43;;;;;;;;;;4992167;28;20401;-60
2022/11/05 02:55:40;;;;;;;11.48;10.65;;;;;;;;;;4997783;28;20045;-60
2022/11/05 02:58:06;;;;;;;9.40;8.80;;;;;;;;;;4996136;28;20570;-60
2022/11/05 03:00:51;;;;;;;10.43;9.73;;;;;;;;;;4991836;28;20125;-60
2022/11/05 03:03:25;;;;;;;11.27;10.57;;;;;;;;;;4994543;28;20030;-59
2022/11/05 03:06:05;;;;;;;9.68;9.07;;;;;;;;;;4996396;28;20140;-59
2022/11/05 03:08:49;;;;;;;10.35;9.68;;;;;;;;;;4996080;28;20038;-59
2022/11/05 03:11:17;;;;;;;11.40;10.70;;;;;;;;;;4994346;28;20145;-60
2022/11/05 03:14:19;;;;;;;9.85;9.25;;;;;;;;;;4993825;28;21294;-60
2022/11/05 03:17:19;;;;;;;10.68;9.90;;;;;;;;;;4993610;28;20033;-60
2022/11/05 03:20:14;;;;;;;10.95;10.20;;;;;;;;;;4983404;28;20527;-60
2022/11/05 03:22:49;;;;;;;11.00;10.30;;;;;;;;;;4993681;28;20547;-60
2022/11/05 03:25:18;;;;;;;10.57;9.88;;;;;;;;;;4997265;28;20068;-60
2022/11/05 03:27:48;;;;;;;11.68;10.88;;;;;;;;;;4999032;28;20464;-60
2022/11/05 03:30:17;;;;;;;10.90;10.20;;;;;;;;;;4995347;28;20120;-60
2022/11/05 03:32:49;;;;;;;10.80;10.10;;;;;;;;;;4993170;28;20404;-60
2022/11/05 03:35:36;;;;;;;12.10;11.30;;;;;;;;;;4995158;28;20360;-60
2022/11/05 03:38:05;;;;;;;11.43;10.63;;;;;;;;;;4994359;28;20052;-60
2022/11/05 03:40:33;;;;;;;11.20;10.50;;;;;;;;;;4995028;28;20073;-60
2022/11/05 03:43:00;;;;;;;12.57;11.68;;;;;;;;;;4991326;28;20125;-60
2022/11/05 03:45:33;;;;;;;11.25;10.48;;;;;;;;;;4996670;28;20190;-60
2022/11/05 03:48:02;;;;;;;11.93;11.02;;;;;;;;;;4992140;28;20065;-60
2022/11/05 03:50:55;;;;;;;11.35;10.57;;;;;;;;;;4994450;28;20104;-60
2022/11/05 03:53:31;;;;;;;10.68;9.98;;;;;;;;;;4995217;28;20140;-60
2022/11/05 03:56:06;;;;;;;10.30;9.57;;;;;;;;;;4994053;28;20043;-60
2022/11/05 03:58:33;;;;;;;11.00;10.20;;;;;;;;;;4993333;28;20088;-60
2022/11/05 04:01:01;;;;;;;11.32;10.43;;;;;;;;;;4995951;28;20168;-60
2022/11/05 04:03:27;;;;;;;11.55;10.85;;;;;;;;;;4993916;28;20582;-60
2022/11/05 04:14:07;;;;;;;11.98;10.88;;;;;;;;;;4996894;28;20467;-60
2022/11/05 04:24:07;;;;;;;11.52;10.73;;;;;;;;;;4995170;28;20030;-60
2022/11/05 04:24:45;;;;;;;11.70;10.85;;;;;;;;;;4993468;28;20040;-60
2022/11/05 04:27:11;;;;;;;11.82;10.93;;;;;;;;;;4993085;28;20025;-60
2022/11/05 04:32:20;;;;;;;10.35;9.65;;;;;;;;;;4992468;28;20142;-60
2022/11/05 04:34:45;;;;;;;11.10;10.25;;;;;;;;;;4996999;28;20058;-60
2022/11/05 04:37:10;;;;;;;11.07;10.05;;;;;;;;;;4994207;28;20022;-60
2022/11/05 04:39:36;;;;;;;12.20;11.20;;;;;;;;;;4994646;28;20035;-60
2022/11/05 04:42:01;;;;;;;11.48;10.75;;;;;;;;;;4994685;28;20051;-60
2022/11/05 04:44:27;;;;;;;11.27;10.43;;;;;;;;;;4994759;28;20042;-60
2022/11/05 04:46:52;;;;;;;11.95;10.73;;;;;;;;;;4997703;28;20034;-60
2022/11/05 04:49:17;;;;;;;11.18;10.38;;;;;;;;;;4999973;28;20029;-60
2022/11/05 04:51:43;;;;;;;13.77;12.73;;;;;;;;;;4998534;28;20033;-60
2022/11/05 04:54:08;;;;;;;10.68;9.98;;;;;;;;;;4996378;28;20476;-60
2022/11/05 04:56:33;;;;;;;9.98;9.38;;;;;;;;;;4997476;28;20522;-60
2022/11/05 04:58:59;;;;;;;11.30;10.43;;;;;;;;;;4999029;28;20073;-60
2022/11/05 05:01:24;;;;;;;17.33;10.07;;;;;;;;;;4996152;28;20029;-60
2022/11/05 05:03:51;;;;;;;10.63;9.88;;;;;;;;;;4995681;28;20112;-60
2022/11/05 05:06:17;;;;;;;12.40;11.50;;;;;;;;;;4998867;28;20034;-60
2022/11/05 05:08:43;;;;;;;10.70;9.90;;;;;;;;;;5002360;28;20061;-60
2022/11/05 05:11:11;;;;;;;11.10;10.30;;;;;;;;;;4997295;28;20061;-60
2022/11/05 05:13:36;;;;;;;11.77;10.82;;;;;;;;;;4996219;28;20096;-60
2022/11/05 05:16:16;;;;;;;10.80;10.00;;;;;;;;;;5000558;28;20400;-60
2022/11/05 05:18:41;;;;;;;9.50;8.90;;;;;;;;;;4998128;28;20030;-60
2022/11/05 05:23:51;;;;;;;10.77;10.07;;;;;;;;;;4997117;28;20812;-60
2022/11/05 05:26:16;;;;;;;10.52;9.77;;;;;;;;;;5000920;28;20108;-60
2022/11/05 05:28:42;;;;;;;10.48;9.77;;;;;;;;;;4995914;28;20026;-60
2022/11/05 05:31:08;;;;;;;9.25;8.55;;;;;;;;;;4998247;28;20128;-60
2022/11/05 05:33:33;;;;;;;10.23;9.48;;;;;;;;;;4995336;28;20038;-60
2022/11/05 05:36:00;;;;;;;10.48;9.77;;;;;;;;;;4996394;28;20045;-60
2022/11/05 05:38:26;;;;;;;10.80;10.00;;;;;;;;;;4996427;28;20030;-60
2022/11/05 05:40:56;;;;;;;10.00;9.30;;;;;;;;;;4999852;28;20045;-60
2022/11/05 05:43:22;;;;;;;9.55;8.95;;;;;;;;;;4997517;28;20612;-60
2022/11/05 05:45:47;;;;;;;9.43;8.77;;;;;;;;;;4994281;28;20033;-60
2022/11/05 05:48:12;;;;;;;8.60;8.02;;;;;;;;;;4994698;28;20578;-60
2022/11/05 05:50:38;;;;;;;9.65;9.05;;;;;;;;;;4993724;28;20030;-60
2022/11/05 05:53:03;;;;;;;8.65;8.05;;;;;;;;;;4992977;28;20052;-60
2022/11/05 05:55:28;;;;;;;8.95;8.35;;;;;;;;;;4995553;28;20038;-60
2022/11/05 05:57:54;;;;;;;8.98;8.38;;;;;;;;;;5000440;28;20143;-60
2022/11/05 06:00:19;;;;;;;7.75;7.25;;;;;;;;;;4998580;28;20038;-60
2022/11/05 06:02:45;;;;;;;8.63;8.02;;;;;;;;;;4998394;28;20113;-59
2022/11/05 06:05:10;;;;;;;8.82;8.23;;;;;;;;;;4999906;28;20049;-59
2022/11/05 06:07:35;;;;;;;10.02;9.23;;;;;;;;;;4998289;28;20404;-60
2022/11/05 06:10:01;;;;;;;11.48;8.77;;;;;;;;;;4997611;28;20129;-59
2022/11/05 06:12:28;;;;;;;8.82;8.23;;;;;;;;;;4994444;28;20045;-59
2022/11/05 06:14:53;;;;;;;9.30;8.70;;;;;;;;;;4996488;28;20061;-59
2022/11/05 06:17:19;;;;;;;9.60;8.95;;;;;;;;;;4997292;28;20064;-59
2022/11/05 06:19:44;;;;;;;8.82;8.23;;;;;;;;;;4999319;28;20037;-60
2022/11/05 06:22:09;;;;;;;9.32;8.73;;;;;;;;;;4993398;28;20069;-60
2022/11/05 06:24:35;;;;;;;8.65;8.05;;;;;;;;;;4998226;28;20031;-61
2022/11/05 06:27:00;;;;;;;9.02;8.43;;;;;;;;;;4999133;28;20337;-59
2022/11/05 06:29:25;;;;;;;9.52;8.73;;;;;;;;;;4997122;28;20133;-59
2022/11/05 06:31:51;;;;;;;9.85;9.15;;;;;;;;;;4996180;28;20088;-60
2022/11/05 06:34:16;;;;;;;9.10;8.50;;;;;;;;;;4994433;28;20084;-60
2022/11/05 06:36:42;;;;;;;9.45;8.77;;;;;;;;;;4997864;28;20038;-60
2022/11/05 06:39:11;;;;;;;9.50;8.90;;;;;;;;;;4996215;28;20066;-60
2022/11/05 06:41:37;;;;;;;10.05;9.35;;;;;;;;;;4997692;28;20539;-60
2022/11/05 06:44:02;;;;;;;9.82;9.13;;;;;;;;;;4993555;28;20042;-61
2022/11/05 06:46:28;;;;;;;9.60;8.90;;;;;;;;;;4995487;28;20033;-60
2022/11/05 06:48:54;;;;;;;9.32;8.63;;;;;;;;;;4997597;28;20041;-60
2022/11/05 06:51:19;;;;;;;8.73;8.10;;;;;;;;;;4998190;28;20407;-60
2022/11/05 06:53:45;;;;;;;8.98;8.35;;;;;;;;;;4994920;28;20041;-60
2022/11/05 06:56:10;;;;;;;9.45;8.65;;;;;;;;;;4996348;28;20628;-60
2022/11/05 06:58:36;;;;;;;9.70;9.00;;;;;;;;;;4994617;28;20609;-60
2022/11/05 07:01:03;;;;;;;9.52;8.88;;;;;;;;;;4994022;28;20457;-60
2022/11/05 07:03:29;;;;;;;8.88;8.27;;;;;;;;;;4996528;28;20034;-60
2022/11/05 07:05:56;;;;;;;9.80;9.13;;;;;;;;;;4996712;28;20096;-60
2022/11/05 07:08:22;;;;;;;10.45;9.57;;;;;;;;;;4994600;28;20045;-60
2022/11/05 07:10:48;;;;;;;9.82;9.18;;;;;;;;;;4992215;28;20038;-60
2022/11/05 07:13:14;;;;;;;10.32;9.63;;;;;;;;;;4995828;28;20093;-60
2022/11/05 07:15:39;;;;;;;9.93;9.25;;;;;;;;;;4995079;28;20079;-60
2022/11/05 07:18:06;;;;;;;10.52;9.60;;;;;;;;;;4994383;28;20648;-60
2022/11/05 07:20:32;;;;;;;9.50;8.88;;;;;;;;;;4996081;28;20113;-60
2022/11/05 07:23:02;;;;;;;9.20;8.57;;;;;;;;;;4994312;28;20034;-60
2022/11/05 07:25:30;;;;;;;10.63;9.80;;;;;;;;;;4998163;28;20046;-60
2022/11/05 07:27:55;;;;;;;10.77;9.93;;;;;;;;;;4995480;28;20060;-60
2022/11/05 07:30:20;;;;;;;9.40;8.70;;;;;;;;;;4993564;28;20575;-60
2022/11/05 07:32:46;;;;;;;10.88;10.18;;;;;;;;;;4994445;28;20022;-59
2022/11/05 07:35:11;;;;;;;9.73;9.00;;;;;;;;;;4994900;28;20323;-60
2022/11/05 07:37:47;;;;;;;10.65;9.93;;;;;;;;;;4994532;28;20034;-60
2022/11/05 07:40:14;;;;;;;10.63;9.88;;;;;;;;;;4994647;28;20120;-60
2022/11/05 07:42:44;;;;;;;9.80;9.10;;;;;;;;;;4995958;28;20034;-60
2022/11/05 07:45:10;;;;;;;9.88;9.18;;;;;;;;;;4991549;28;20045;-60
2022/11/05 07:47:37;;;;;;;9.75;9.05;;;;;;;;;;4995361;28;20039;-60
2022/11/05 07:50:03;;;;;;;8.90;8.30;;;;;;;;;;4995076;28;20030;-60
2022/11/05 07:52:33;;;;;;;9.70;8.90;;;;;;;;;;4995764;28;20096;-60
2022/11/05 07:54:58;;;;;;;10.57;9.88;;;;;;;;;;4995465;28;20128;-61
2022/11/05 07:57:23;;;;;;;10.85;9.95;;;;;;;;;;4997109;28;20065;-60
2022/11/05 07:59:49;;;;;;;16.38;9.30;;;;;;;;;;4993480;28;20041;-60
2022/11/05 08:02:14;;;;;;;11.35;10.30;;;;;;;;;;4994230;28;20034;-60
2022/11/05 08:04:41;;;;;;;12.80;11.57;;;;;;;;;;4993941;28;20053;-60
2022/11/05 08:07:07;;;;;;;10.02;9.23;;;;;;;;;;4995522;28;20034;-60
2022/11/05 08:09:32;;;;;;;9.80;9.10;;;;;;;;;;4994066;28;20045;-60
2022/11/05 08:11:58;;;;;;;10.25;9.52;;;;;;;;;;4993907;28;20483;-60
2022/11/05 08:14:23;;;;;;;10.13;9.35;;;;;;;;;;4992631;28;20038;-60
2022/11/05 08:16:48;;;;;;;10.32;9.43;;;;;;;;;;4997658;28;20125;-60
2022/11/05 08:19:14;;;;;;;8.68;8.07;;;;;;;;;;4991443;28;20026;-60
2022/11/05 08:21:39;;;;;;;9.63;8.93;;;;;;;;;;4996440;28;20037;-60
2022/11/05 08:24:05;;;;;;;10.27;9.23;;;;;;;;;;4998087;28;20041;-60
2022/11/05 08:26:30;;;;;;;9.95;9.13;;;;;;;;;;4997090;28;20159;-60
2022/11/05 08:28:56;;;;;;;9.23;8.63;;;;;;;;;;4997713;28;20307;-60
2022/11/05 08:31:21;;;;;;;9.48;8.77;;;;;;;;;;4999622;28;20531;-60
2022/11/05 08:33:46;;;;;;;10.02;9.13;;;;;;;;;;4999433;28;20034;-60
2022/11/05 08:36:12;;;;;;;8.95;8.30;;;;;;;;;;4995063;28;20034;-60
2022/11/05 08:38:37;;;;;;;8.98;8.30;;;;;;;;;;5000011;28;20034;-60
2022/11/05 08:41:03;;;;;;;10.73;9.27;;;;;;;;;;4996739;28;20515;-60
2022/11/05 08:43:29;;;;;;;12.60;9.27;;;;;;;;;;4998119;28;20062;-60
2022/11/05 08:45:54;;;;;;;9.13;8.43;;;;;;;;;;4998769;28;20038;-60
2022/11/05 08:48:19;;;;;;;9.00;8.30;;;;;;;;;;4995176;28;20077;-60
2022/11/05 08:50:47;;;;;;;8.55;7.90;;;;;;;;;;4997321;28;20128;-60
2022/11/05 08:53:13;;;;;;;8.00;7.50;;;;;;;;;;4997736;28;20045;-60
2022/11/05 08:55:38;;;;;;;9.27;8.65;;;;;;;;;;4997799;28;20034;-60
2022/11/05 08:58:09;;;;;;;8.00;7.40;;;;;;;;;;5000559;28;20452;-60
2022/11/05 09:00:36;;;;;;;8.40;7.80;;;;;;;;;;5012763;28;20041;-60
2022/11/05 09:03:03;;;;;;;8.77;8.13;;;;;;;;;;4996614;28;20507;-60
2022/11/05 09:05:30;;;;;;;8.20;7.60;;;;;;;;;;4997363;28;20038;-60
2022/11/05 09:07:56;;;;;;;8.43;7.80;;;;;;;;;;4995040;28;20046;-60
2022/11/05 09:10:22;;;;;;;9.32;8.63;;;;;;;;;;4997659;28;20129;-60
2022/11/05 09:12:48;;;;;;;9.75;8.95;;;;;;;;;;4999028;28;20038;-60
2022/11/05 09:15:14;;;;;;;10.73;8.85;;;;;;;;;;4996516;28;20037;-60
2022/11/05 09:17:39;;;;;;;8.63;8.02;;;;;;;;;;4994737;28;20034;-60
2022/11/05 09:20:07;;;;;;;8.75;8.05;;;;;;;;;;4997681;28;20053;-60
2022/11/05 09:22:33;;;;;;;9.00;8.38;;;;;;;;;;4988104;28;20033;-60
2022/11/05 09:24:58;;;;;;;9.10;8.25;;;;;;;;;;4996915;28;20037;-60
2022/11/05 09:27:23;;;;;;;8.23;7.63;;;;;;;;;;4996951;28;20419;-60
2022/11/05 09:29:49;;;;;;;10.45;9.55;;;;;;;;;;4996516;28;20034;-60
2022/11/05 09:32:17;;;;;;;9.07;8.38;;;;;;;;;;4994874;28;20236;-59
2022/11/05 09:34:43;;;;;;;8.25;7.65;;;;;;;;;;4999265;28;20026;-59
2022/11/05 09:37:09;;;;;;;8.63;8.02;;;;;;;;;;4996834;28;20582;-59
2022/11/05 09:39:34;;;;;;;8.38;7.78;;;;;;;;;;4996047;28;20045;-59
2022/11/05 09:42:03;;;;;;;7.82;7.32;;;;;;;;;;4996855;28;20366;-59
2022/11/05 09:44:58;;;;;;;8.23;7.53;;;;;;;;;;4993814;28;20049;-59
2022/11/05 09:47:32;;;;;;;8.25;7.65;;;;;;;;;;4998607;28;20388;-60
2022/11/05 09:50:01;;;;;;;7.10;6.60;;;;;;;;;;4993892;28;20740;-59
2022/11/05 09:52:28;;;;;;;8.55;7.82;;;;;;;;;;4994889;28;20580;-60
2022/11/05 09:54:55;;;;;;;8.20;7.60;;;;;;;;;;4996676;28;20046;-60
2022/11/05 09:57:30;;;;;;;9.50;8.80;;;;;;;;;;4995766;28;20077;-59
2022/11/05 10:00:03;;;;;;;9.50;8.77;;;;;;;;;;4995318;28;20038;-59
2022/11/05 10:02:48;;;;;;;7.68;7.15;;;;;;;;;;4996870;28;20068;-60
2022/11/05 10:05:14;;;;;;;7.28;6.78;;;;;;;;;;4995696;28;20125;-59
2022/11/05 10:08:00;;;;;;;8.43;7.82;;;;;;;;;;4994799;28;20038;-60
2022/11/05 10:10:37;;;;;;;8.85;8.25;;;;;;;;;;4996977;28;20061;-60
2022/11/05 10:13:22;;;;;;;10.50;9.80;;;;;;;;;;4992112;28;20037;-60
2022/11/05 10:15:57;;;;;;;12.43;11.65;;;;;;;;;;4993651;28;20058;-60
2022/11/05 10:18:29;;;;;;;12.38;11.57;;;;;;;;;;4995079;28;20030;-60
2022/11/05 10:20:54;;;;;;;10.63;9.93;;;;;;;;;;4997121;28;20333;-60
2022/11/05 10:23:21;;;;;;;10.30;9.60;;;;;;;;;;4995850;28;20042;-60
2022/11/05 10:25:53;;;;;;;12.75;11.68;;;;;;;;;;4997632;28;20030;-60
2022/11/05 10:28:21;;;;;;;10.05;9.45;;;;;;;;;;4996904;28;20062;-60
2022/11/05 10:30:50;;;;;;;9.80;9.20;;;;;;;;;;4993307;28;20033;-60
2022/11/05 10:33:27;;;;;;;13.38;11.23;;;;;;;;;;4994808;28;20345;-60
2022/11/05 10:35:58;;;;;;;12.45;11.65;;;;;;;;;;4994676;28;20057;-60
2022/11/05 10:38:23;;;;;;;12.90;12.10;;;;;;;;;;4997397;28;20042;-60
2022/11/05 10:41:08;;;;;;;10.25;9.63;;;;;;;;;;4995642;28;20042;-60
2022/11/05 10:43:43;;;;;;;12.32;11.43;;;;;;;;;;4993255;28;20099;-60
2022/11/05 10:46:26;;;;;;;12.60;11.70;;;;;;;;;;4993456;28;20030;-59
2022/11/05 10:49:33;;;;;;;12.30;11.10;;;;;;;;;;4995883;28;20054;-59
2022/11/05 10:52:03;;;;;;;12.10;11.30;;;;;;;;;;4967996;28;20054;-60
2022/11/05 10:54:34;;;;;;;15.80;14.53;;;;;;;;;;4994651;28;20034;-60
2022/11/05 10:56:59;;;;;;;14.93;14.07;;;;;;;;;;4995158;28;20129;-60
2022/11/05 10:59:29;;;;;;;15.77;14.88;;;;;;;;;;4994891;28;20117;-60
2022/11/05 11:02:00;;;;;;;13.00;12.10;;;;;;;;;;4994774;28;20378;-60
2022/11/05 11:04:27;;;;;;;13.38;12.45;;;;;;;;;;4994365;28;20171;-60
2022/11/05 11:06:55;;;;;;;15.82;14.77;;;;;;;;;;4996247;28;20041;-60
2022/11/05 11:09:24;;;;;;;15.32;14.43;;;;;;;;;;4997144;28;20044;-60
2022/11/05 11:12:01;;;;;;;10.75;10.05;;;;;;;;;;4993760;28;20049;-60
2022/11/05 11:14:27;;;;;;;14.43;13.60;;;;;;;;;;4994402;28;20625;-60
2022/11/05 11:16:58;;;;;;;16.63;15.73;;;;;;;;;;4992066;28;20053;-60
2022/11/05 11:19:32;;;;;;;18.45;17.38;;;;;;;;;;4991340;28;20125;-60
2022/11/05 11:22:12;;;;;;;20.10;18.80;;;;;;;;;;4994015;28;20045;-60
2022/11/05 11:24:40;;;;;;;18.77;17.67;;;;;;;;;;4992310;28;20056;-60
2022/11/05 11:27:13;;;;;;;17.75;16.77;;;;;;;;;;4991793;28;20375;-60
2022/11/05 11:29:40;;;;;;;19.60;18.45;;;;;;;;;;5001672;28;20068;-60
2022/11/05 11:32:15;;;;;;;15.90;15.00;;;;;;;;;;4998239;28;20068;-60
2022/11/05 11:34:43;;;;;;;17.65;16.55;;;;;;;;;;4991142;28;20046;-60
2022/11/05 11:37:13;;;;;;;13.93;13.13;;;;;;;;;;4996765;28;20025;-60
2022/11/05 11:39:39;;;;;;;14.15;13.18;;;;;;;;;;4997123;28;20044;-60
2022/11/05 11:42:20;;;;;;;11.27;10.38;;;;;;;;;;5001269;28;20049;-60
2022/11/05 11:44:46;;;;;;;8.75;8.15;;;;;;;;;;4994769;28;20077;-60
2022/11/05 11:47:15;;;;;;;14.95;13.65;;;;;;;;;;4992890;28;20038;-60
2022/11/05 11:49:40;;;;;;;11.52;10.82;;;;;;;;;;4999243;28;20057;-60
2022/11/05 11:52:15;;;;;;;10.77;10.07;;;;;;;;;;4992988;28;20308;-60
2022/11/05 11:54:41;;;;;;;10.65;9.95;;;;;;;;;;4995424;28;20506;-60
2022/11/05 11:57:25;;;;;;;10.50;9.82;;;;;;;;;;4997352;28;20070;-61
2022/11/05 11:59:52;;;;;;;10.73;10.05;;;;;;;;;;4995856;28;20046;-61
2022/11/05 12:03:02;;;;;;;12.00;11.20;;;;;;;;;;4997791;28;20026;-60
2022/11/05 12:05:47;;;;;;;13.15;12.27;;;;;;;;;;4957304;28;20578;-61
2022/11/05 12:08:34;;;;;;;11.27;10.57;;;;;;;;;;4995874;28;20042;-61
2022/11/05 12:11:21;;;;;;;15.05;14.15;;;;;;;;;;4998214;28;20123;-61
2022/11/05 12:13:46;;;;;;;15.30;14.30;;;;;;;;;;4998109;28;20037;-60
2022/11/05 12:16:36;;;;;;;15.95;15.05;;;;;;;;;;4995195;28;20034;-60
2022/11/05 12:19:28;;;;;;;16.63;15.63;;;;;;;;;;4994835;28;20048;-60
2022/11/05 12:22:08;;;;;;;16.83;15.93;;;;;;;;;;4996909;28;20430;-60
2022/11/05 12:24:58;;;;;;;18.05;16.95;;;;;;;;;;4997777;28;20037;-60
2022/11/05 12:27:45;;;;;;;14.50;13.52;;;;;;;;;;4999462;28;20065;-60
2022/11/05 12:30:14;;;;;;;15.20;14.30;;;;;;;;;;4994105;28;20154;-59
2022/11/05 12:32:54;;;;;;;18.63;17.60;;;;;;;;;;4996469;28;20038;-60
2022/11/05 12:35:29;;;;;;;17.67;16.58;;;;;;;;;;4995323;28;20046;-60
2022/11/05 12:38:31;;;;;;;19.02;17.92;;;;;;;;;;4997475;28;20049;-60
2022/11/05 12:41:04;;;;;;;15.10;14.25;;;;;;;;;;4997030;28;20076;-60
2022/11/05 12:43:54;;;;;;;12.50;11.75;;;;;;;;;;4997277;28;20113;-60
2022/11/05 12:46:34;;;;;;;10.90;10.20;;;;;;;;;;4998517;28;20034;-60
2022/11/05 12:49:05;;;;;;;10.48;9.88;;;;;;;;;;4996655;28;20038;-59
2022/11/05 12:52:03;;;;;;;10.20;9.60;;;;;;;;;;4994023;28;20085;-60
2022/11/05 12:54:40;;;;;;;8.73;8.13;;;;;;;;;;4951315;28;20063;-60
2022/11/05 12:57:11;;;;;;;9.02;8.43;;;;;;;;;;5000063;28;20042;-60
2022/11/05 12:59:53;;;;;;;9.77;9.07;;;;;;;;;;4996631;28;20038;-60
2022/11/05 13:02:22;;;;;;;9.35;8.75;;;;;;;;;;4995315;28;20068;-61
2022/11/05 13:04:59;;;;;;;8.25;7.65;;;;;;;;;;4999449;28;20037;-60
2022/11/05 13:07:33;;;;;;;10.98;10.18;;;;;;;;;;4995652;28;20037;-61
2022/11/05 13:10:04;;;;;;;8.65;7.95;;;;;;;;;;4997668;28;20050;-61
2022/11/05 13:12:34;;;;;;;7.78;7.28;;;;;;;;;;4994991;28;20037;-61
2022/11/05 13:15:23;;;;;;;8.90;8.30;;;;;;;;;;4996520;28;20034;-61
2022/11/05 13:17:58;;;;;;;7.57;7.07;;;;;;;;;;4997658;28;20372;-61
2022/11/05 13:20:29;;;;;;;7.93;7.43;;;;;;;;;;4995632;28;20026;-61
2022/11/05 13:23:11;;;;;;;7.45;6.95;;;;;;;;;;4997923;28;20030;-59
2022/11/05 13:25:45;;;;;;;8.57;7.97;;;;;;;;;;4996523;28;20033;-61
2022/11/05 13:28:29;;;;;;;8.73;8.18;;;;;;;;;;4997471;28;20034;-60
2022/11/05 13:31:00;;;;;;;9.07;8.48;;;;;;;;;;4995605;28;20106;-60
2022/11/05 13:33:30;;;;;;;10.27;9.68;;;;;;;;;;4995308;28;20068;-61
2022/11/05 13:39:28;;;;;;;9.95;9.35;;;;;;;;;;4993595;28;20273;-60
2022/11/05 13:42:39;;;;;;;12.50;11.80;;;;;;;;;;4990421;28;20136;-60
2022/11/05 13:45:34;;;;;;;10.98;10.27;;;;;;;;;;4999039;28;20041;-60
2022/11/05 13:48:36;;;;;;;12.50;11.70;;;;;;;;;;4991395;28;20423;-60
2022/11/05 13:51:33;;;;;;;11.68;10.98;;;;;;;;;;4996789;28;20036;-61
2022/11/05 13:54:11;;;;;;;13.00;11.70;;;;;;;;;;4980023;28;20068;-60
2022/11/05 13:56:49;;;;;;;12.48;11.68;;;;;;;;;;4996733;28;20633;-60
2022/11/05 13:59:30;;;;;;;11.57;10.88;;;;;;;;;;4996661;28;20320;-60
2022/11/05 14:01:58;;;;;;;10.57;9.98;;;;;;;;;;4996629;28;20030;-60
2022/11/05 14:04:26;;;;;;;11.35;10.65;;;;;;;;;;4997913;28;20091;-60
2022/11/05 14:06:54;;;;;;;10.73;10.02;;;;;;;;;;4995084;28;20025;-61
2022/11/05 14:09:25;;;;;;;9.85;8.93;;;;;;;;;;4995171;28;20034;-60
2022/11/05 14:11:52;;;;;;;;;;;;;;;;;;4997136;28;20137;-62
2022/11/05 14:14:30;;;;;;;9.10;8.50;;;;;;;;;;4993974;28;19945;-60
2022/11/05 14:17:07;;;;;;;9.73;9.13;;;;;;;;;;4995344;28;20090;-60
2022/11/05 14:19:36;;;;;;;8.95;8.35;;;;;;;;;;4992955;28;20443;-59
2022/11/05 14:22:28;;;;;;;9.07;8.48;;;;;;;;;;4997238;28;20068;-60
2022/11/05 14:24:53;;;;;;;9.52;8.93;;;;;;;;;;4997632;28;20033;-60
2022/11/05 14:27:27;;;;;;;9.77;9.18;;;;;;;;;;4996766;28;20036;-60
2022/11/05 14:29:53;;;;;;;9.93;9.32;;;;;;;;;;4996165;28;20030;-61
2022/11/05 14:32:18;;;;;;;7.85;7.35;;;;;;;;;;4995122;28;20049;-61
2022/11/05 14:34:52;;;;;;;9.32;8.65;;;;;;;;;;4993482;28;20041;-60
2022/11/05 14:37:27;;;;;;;8.25;7.75;;;;;;;;;;4995397;28;20034;-61
2022/11/05 14:39:54;;;;;;;7.32;6.82;;;;;;;;;;4996527;28;20034;-60
2022/11/05 14:42:30;;;;;;;8.10;7.60;;;;;;;;;;4995880;28;20069;-60
2022/11/05 14:44:57;;;;;;;7.95;7.45;;;;;;;;;;4996506;28;20038;-59
2022/11/05 14:47:26;;;;;;;7.47;6.90;;;;;;;;;;4996552;28;20604;-60
2022/11/05 14:50:10;;;;;;;7.65;7.15;;;;;;;;;;4992965;28;20425;-60
2022/11/05 14:52:37;;;;;;;7.22;6.72;;;;;;;;;;4995522;28;20480;-60
2022/11/05 14:55:04;;;;;;;7.50;7.00;;;;;;;;;;4997930;28;20460;-60
2022/11/05 14:57:41;;;;;;;7.40;6.90;;;;;;;;;;4999734;28;20103;-60
2022/11/05 15:00:28;;;;;;;7.25;6.75;;;;;;;;;;4993954;28;20070;-60
2022/11/05 15:03:02;;;;;;;7.55;7.03;;;;;;;;;;4993613;28;20487;-60
2022/11/05 15:05:47;;;;;;;7.30;6.80;;;;;;;;;;4997226;28;20034;-60
2022/11/05 15:08:23;;;;;;;8.27;7.68;;;;;;;;;;4994667;28;20096;-59
2022/11/05 15:10:49;;;;;;;8.20;7.60;;;;;;;;;;4995386;28;20463;-59
2022/11/05 15:13:53;;;;;;;7.75;7.25;;;;;;;;;;4994324;28;20348;-59
2022/11/05 15:16:23;;;;;;;9.27;8.32;;;;;;;;;;4901988;29;20036;-60
2022/11/05 15:18:49;;;;;;;7.43;6.93;;;;;;;;;;4907039;29;20424;-60
2022/11/05 15:21:17;;;;;;;7.22;6.72;;;;;;;;;;4954131;28;20056;-60
2022/11/05 15:23:45;;;;;;;7.47;6.97;;;;;;;;;;4994905;28;20530;-61
2022/11/05 15:26:10;;;;;;;6.93;6.43;;;;;;;;;;4995853;28;20550;-60
2022/11/05 15:28:37;;;;;;;7.93;7.43;;;;;;;;;;4994553;28;20056;-62
2022/11/05 15:31:23;;;;;;;7.05;6.55;;;;;;;;;;4998819;28;20069;-60
2022/11/05 15:33:48;;;;;;;7.82;7.22;;;;;;;;;;4997327;28;20150;-60
2022/11/05 15:36:16;;;;;;;7.50;7.00;;;;;;;;;;4997559;28;20109;-60
2022/11/05 15:38:42;;;;;;;7.50;7.00;;;;;;;;;;4992973;28;20109;-60
2022/11/05 15:41:23;;;;;;;7.15;6.65;;;;;;;;;;4991978;28;20064;-61
2022/11/05 15:43:49;;;;;;;7.20;6.70;;;;;;;;;;4993670;28;20124;-60